Windflight — WDF6324 — position and weather

sailwx.info

Track history (hours):
 
Tides and Currents Weather Stations Pressure Air Temp Water Temp Dewpoint Dewpoint Depression Visibility Wind Speed Wind Dir Waves Ship Positions

Windflight

More information available from US FCC via Universal Licensing System and Coast Guard Vessel Documentation Center.

Last reported at 2014-Aug-10 15:46 UTC. Time now 2014-Sep-02 19:01 UTC.
Position N 47°41' W 122°25'.
Warning: this ship's position is 23 days out of date.

Length 21 m.

Type: Pleasure craft. MMSI: 367473060.

Date/timePositionNaut miles runAvg speedWind from/ knotsBaromVisibWave heightAir tempDewpointWater temp
2014-Aug-10 15:46N 47°41' W 122°25'0 0.0
2014-Aug-10 15:28N 47°41' W 122°25'0 0.0
2014-Aug-10 15:01N 47°41' W 122°25'0 0.0
2014-Aug-10 14:31N 47°41' W 122°25'0 0.0
2014-Aug-10 13:28N 47°41' W 122°25'0 0.0
2014-Aug-10 12:22N 47°41' W 122°25'0 0.0
2014-Aug-10 11:31N 47°41' W 122°25'0 0.0
2014-Aug-10 10:28N 47°41' W 122°25'0 0.0
2014-Aug-10 10:13N 47°41' W 122°25'0 0.0
2014-Aug-10 09:31N 47°41' W 122°25'0 0.0
2014-Aug-10 09:13N 47°41' W 122°25'0 0.0
2014-Aug-10 08:28N 47°41' W 122°25'0 0.0
2014-Aug-10 07:58N 47°41' W 122°25'0 0.0
2014-Aug-10 07:22N 47°41' W 122°25'0 0.0
2014-Aug-10 06:25N 47°41' W 122°25'0 0.0
2014-Aug-10 05:28N 47°41' W 122°25'0 0.0
2014-Aug-10 04:28N 47°41' W 122°25'0 0.0
2014-Aug-10 03:28N 47°41' W 122°25'0 0.0
2014-Aug-10 03:07N 47°41' W 122°25'0 0.0
2014-Aug-10 02:19N 47°41' W 122°25'0 0.0
2014-Aug-10 01:31N 47°41' W 122°25'0 0.0
2014-Aug-10 00:37N 47°41' W 122°25'0 0.0
2014-Aug-10 00:22N 47°41' W 122°25'0 0.0
2014-Aug-09 23:31N 47°41' W 122°25'0 0.0
2014-Aug-09 21:31N 47°41' W 122°25'0 0.0
2014-Aug-09 19:25N 47°41' W 122°25'0 0.0
2014-Aug-09 18:28N 47°41' W 122°25'  
2014-Aug-04 19:45N 47°41' W 122°25'0 0.0
2014-Aug-04 19:33N 47°41' W 122°25'0 0.0
2014-Aug-04 19:30N 47°41' W 122°25'0 0.4
2014-Aug-04 18:33N 47°41' W 122°25'0 7.0
2014-Aug-04 18:30N 47°41' W 122°25'8 9.0
2014-Aug-04 17:33N 47°49' W 122°29'0 8.5
2014-Aug-04 17:30N 47°50' W 122°29'8 8.3
2014-Aug-04 16:34N 47°56' W 122°35'4 0.3
2014-Aug-04 02:04N 47°55' W 122°41'29 8.1
2014-Aug-03 22:29N 48°23' W 122°55'8 9.0
2014-Aug-03 21:33N 48°31' W 122°58'9 9.2
2014-Aug-03 20:33N 48°38' W 123°06'11 8.2
2014-Aug-03 19:09N 48°46' W 123°19'6 8.8
2014-Aug-03 18:29N 48°51' W 123°23'29 4.1
2014-Aug-03 11:30N 49°10' W 123°56'0 0.0
2014-Aug-03 10:12N 49°10' W 123°56'0 0.0
2014-Aug-03 09:12N 49°10' W 123°56'0 0.0
2014-Aug-03 08:21N 49°10' W 123°56'0 0.0
2014-Aug-03 07:33N 49°10' W 123°56'0 0.0
2014-Aug-03 03:27N 49°10' W 123°56'0 0.0
2014-Aug-03 02:21N 49°10' W 123°56'0 0.0
2014-Aug-03 01:21N 49°10' W 123°56'0 0.0
2014-Aug-03 00:33N 49°10' W 123°56'0 0.0
2014-Aug-02 23:27N 49°10' W 123°56'0 0.0
2014-Aug-02 22:33N 49°10' W 123°56'0 0.0
2014-Aug-02 21:33N 49°10' W 123°56'0 0.0
2014-Aug-02 20:33N 49°10' W 123°56'0 0.0
2014-Aug-02 19:27N 49°10' W 123°56'0 0.0
2014-Aug-02 18:33N 49°10' W 123°56'0 0.0
2014-Aug-02 17:33N 49°10' W 123°56'0 0.0
2014-Aug-02 16:27N 49°10' W 123°56'0 0.0
2014-Aug-02 15:33N 49°10' W 123°56'0 0.0
2014-Aug-02 03:30N 49°10' W 123°56'0 0.0
2014-Aug-02 02:24N 49°10' W 123°56'0 0.0
2014-Aug-02 01:24N 49°10' W 123°56'0 0.0
2014-Jul-31 21:31N 49°10' W 123°56'0 0.0
2014-Jul-31 20:31N 49°10' W 123°56'0 0.0
2014-Jul-31 19:32N 49°10' W 123°56'0 0.1
2014-Jul-31 18:33N 49°10' W 123°56'7 7.3
2014-Jul-31 17:33N 49°17' W 123°58'9 9.2
2014-Jul-31 16:33N 49°26' W 124°01'  
Track history (hours):
 
Tides and Currents Weather Stations Pressure Air Temp Water Temp Dewpoint Dewpoint Depression Visibility Wind Speed Wind Dir Waves Ship Positions

Windflight

More information available from US FCC via Universal Licensing System and Coast Guard Vessel Documentation Center.

Last reported at 2014-Aug-10 15:46 UTC. Time now 2014-Sep-02 19:01 UTC.
Position N 47°41' W 122°25'.
Warning: this ship's position is 23 days out of date.

Length 21 m.

Type: Pleasure craft. MMSI: 367473060.

Date/timePositionNaut miles runAvg speedWind from/ knotsBaromVisibWave heightAir tempDewpointWater temp
2014-Aug-10 15:46N 47°41' W 122°25'0 0.0
2014-Aug-10 15:28N 47°41' W 122°25'0 0.0
2014-Aug-10 15:01N 47°41' W 122°25'0 0.0
2014-Aug-10 14:31N 47°41' W 122°25'0 0.0
2014-Aug-10 13:28N 47°41' W 122°25'0 0.0
2014-Aug-10 12:22N 47°41' W 122°25'0 0.0
2014-Aug-10 11:31N 47°41' W 122°25'0 0.0
2014-Aug-10 10:28N 47°41' W 122°25'0 0.0
2014-Aug-10 10:13N 47°41' W 122°25'0 0.0
2014-Aug-10 09:31N 47°41' W 122°25'0 0.0
2014-Aug-10 09:13N 47°41' W 122°25'0 0.0
2014-Aug-10 08:28N 47°41' W 122°25'0 0.0
2014-Aug-10 07:58N 47°41' W 122°25'0 0.0
2014-Aug-10 07:22N 47°41' W 122°25'0 0.0
2014-Aug-10 06:25N 47°41' W 122°25'0 0.0
2014-Aug-10 05:28N 47°41' W 122°25'0 0.0
2014-Aug-10 04:28N 47°41' W 122°25'0 0.0
2014-Aug-10 03:28N 47°41' W 122°25'0 0.0
2014-Aug-10 03:07N 47°41' W 122°25'0 0.0
2014-Aug-10 02:19N 47°41' W 122°25'0 0.0
2014-Aug-10 01:31N 47°41' W 122°25'0 0.0
2014-Aug-10 00:37N 47°41' W 122°25'0 0.0
2014-Aug-10 00:22N 47°41' W 122°25'0 0.0
2014-Aug-09 23:31N 47°41' W 122°25'0 0.0
2014-Aug-09 21:31N 47°41' W 122°25'0 0.0
2014-Aug-09 19:25N 47°41' W 122°25'0 0.0
2014-Aug-09 18:28N 47°41' W 122°25'  
2014-Aug-04 19:45N 47°41' W 122°25'0 0.0
2014-Aug-04 19:33N 47°41' W 122°25'0 0.0
2014-Aug-04 19:30N 47°41' W 122°25'0 0.4
2014-Aug-04 18:33N 47°41' W 122°25'0 7.0
2014-Aug-04 18:30N 47°41' W 122°25'8 9.0
2014-Aug-04 17:33N 47°49' W 122°29'0 8.5
2014-Aug-04 17:30N 47°50' W 122°29'8 8.3
2014-Aug-04 16:34N 47°56' W 122°35'4 0.3
2014-Aug-04 02:04N 47°55' W 122°41'29 8.1
2014-Aug-03 22:29N 48°23' W 122°55'8 9.0
2014-Aug-03 21:33N 48°31' W 122°58'9 9.2
2014-Aug-03 20:33N 48°38' W 123°06'11 8.2
2014-Aug-03 19:09N 48°46' W 123°19'6 8.8
2014-Aug-03 18:29N 48°51' W 123°23'29 4.1
2014-Aug-03 11:30N 49°10' W 123°56'0 0.0
2014-Aug-03 10:12N 49°10' W 123°56'0 0.0
2014-Aug-03 09:12N 49°10' W 123°56'0 0.0
2014-Aug-03 08:21N 49°10' W 123°56'0 0.0
2014-Aug-03 07:33N 49°10' W 123°56'0 0.0
2014-Aug-03 03:27N 49°10' W 123°56'0 0.0
2014-Aug-03 02:21N 49°10' W 123°56'0 0.0
2014-Aug-03 01:21N 49°10' W 123°56'0 0.0
2014-Aug-03 00:33N 49°10' W 123°56'0 0.0
2014-Aug-02 23:27N 49°10' W 123°56'0 0.0
2014-Aug-02 22:33N 49°10' W 123°56'0 0.0
2014-Aug-02 21:33N 49°10' W 123°56'0 0.0
2014-Aug-02 20:33N 49°10' W 123°56'0 0.0
2014-Aug-02 19:27N 49°10' W 123°56'0 0.0
2014-Aug-02 18:33N 49°10' W 123°56'0 0.0
2014-Aug-02 17:33N 49°10' W 123°56'0 0.0
2014-Aug-02 16:27N 49°10' W 123°56'0 0.0
2014-Aug-02 15:33N 49°10' W 123°56'0 0.0
2014-Aug-02 03:30N 49°10' W 123°56'0 0.0
2014-Aug-02 02:24N 49°10' W 123°56'0 0.0
2014-Aug-02 01:24N 49°10' W 123°56'0 0.0
2014-Jul-31 21:31N 49°10' W 123°56'0 0.0
2014-Jul-31 20:31N 49°10' W 123°56'0 0.0
2014-Jul-31 19:32N 49°10' W 123°56'0 0.1
2014-Jul-31 18:33N 49°10' W 123°56'7 7.3
2014-Jul-31 17:33N 49°17' W 123°58'9 9.2
2014-Jul-31 16:33N 49°26' W 124°01'  

Dump ship's entire track history